CheckWX is a tool to help pilots better visualize weather data.  It is not intended as a substitute for an official pre-flight weather briefing.

13:22:49 UTC

24J METAR
Suwannee County Airport
Live Oak, Florida, USA
Current

8 mins ago

K24J 211315Z AUTO 05003KT 10SM CLR 22/20 A3024 RMK A01
Observed
Sep-21 @ 13:15 UTC
Wind
  • 050° at 3 KTS
Visibility
10 SM
Flight Rules
VFR
Cloud Levels
  • Clear skies
Temperature
22°C / 72°F
Dewpoint
20°C / 68°F
Humidity
88%
Altimeter
30.24" Hg
Pressure
1024.02 hPa
Previous

28 mins ago

K24J 211255Z AUTO 00000KT 10SM CLR 21/21 A3024 RMK A01
Observed
Sep-21 @ 12:55 UTC
Visibility
10 SM
Flight Rules
VFR
Cloud Levels
  • Clear skies
Temperature
21°C / 70°F
Dewpoint
21°C / 70°F
Humidity
100%
Altimeter
30.24" Hg
Pressure
1024.02 hPa
Previous

48 mins ago

K24J 211235Z AUTO 01004KT 10SM CLR 20/20 A3023 RMK A01
Observed
Sep-21 @ 12:35 UTC
Wind
  • 010° at 4 KTS
Visibility
10 SM
Flight Rules
VFR
Cloud Levels
  • Clear skies
Temperature
20°C / 68°F
Dewpoint
20°C / 68°F
Humidity
100%
Altimeter
30.23" Hg
Pressure
1023.72 hPa